createdAt,value
2018-12-07T00:00:29.836Z,4.30
2018-12-07T00:02:58.317Z,2.93
2018-12-07T00:05:27.191Z,3.07
2018-12-07T00:07:56.367Z,3.20
2018-12-07T00:10:24.994Z,3.93
2018-12-07T00:12:53.502Z,2.10
2018-12-07T00:15:22.015Z,2.23
2018-12-07T00:17:50.466Z,1.80
2018-12-07T00:20:19.315Z,2.50
2018-12-07T00:22:47.779Z,1.90
2018-12-07T00:25:16.459Z,3.40
2018-12-07T00:27:45.350Z,2.17
2018-12-07T00:30:13.939Z,2.97
2018-12-07T00:32:42.467Z,3.93
2018-12-07T00:35:11.043Z,2.50
2018-12-07T00:37:39.855Z,1.87
2018-12-07T00:40:08.321Z,2.80
2018-12-07T00:42:36.945Z,4.60
2018-12-07T00:45:06.143Z,2.93
2018-12-07T00:47:34.723Z,3.33
2018-12-07T00:50:03.542Z,1.97
2018-12-07T00:52:32.195Z,1.80
2018-12-07T00:55:00.674Z,3.77
2018-12-07T00:57:29.651Z,2.00
2018-12-07T00:59:58.150Z,3.27
2018-12-07T01:02:26.711Z,3.17
2018-12-07T01:04:55.290Z,2.20
2018-12-07T01:07:24.047Z,1.60
2018-12-07T01:09:52.594Z,2.53
2018-12-07T01:12:21.222Z,3.30
2018-12-07T01:14:49.904Z,1.47
2018-12-07T01:17:18.569Z,3.17
2018-12-07T01:19:47.082Z,2.37
2018-12-07T01:22:15.532Z,3.87
2018-12-07T01:24:44.036Z,2.87
2018-12-07T01:27:13.031Z,2.37
2018-12-07T01:29:41.522Z,2.57
2018-12-07T01:32:10.214Z,1.87
2018-12-07T01:34:38.691Z,1.90
2018-12-07T01:37:07.654Z,2.50
2018-12-07T01:39:36.106Z,2.40
2018-12-07T01:42:04.833Z,2.63
2018-12-07T01:44:33.462Z,2.63
2018-12-07T01:47:02.203Z,2.37
2018-12-07T01:49:30.955Z,2.00
2018-12-07T01:51:59.811Z,1.20
2018-12-07T01:54:28.399Z,2.77
2018-12-07T01:56:57.119Z,1.33
2018-12-07T01:59:25.914Z,1.60
2018-12-07T02:01:54.599Z,2.03
2018-12-07T02:04:23.942Z,2.37
2018-12-07T02:06:52.588Z,1.07
2018-12-07T02:09:21.170Z,3.27
2018-12-07T02:11:49.786Z,1.40
2018-12-07T02:14:18.478Z,2.63
2018-12-07T02:16:47.027Z,1.30
2018-12-07T02:19:15.786Z,0.70
2018-12-07T02:21:44.339Z,3.07
2018-12-07T02:24:12.899Z,2.00
2018-12-07T02:26:41.628Z,1.57
2018-12-07T02:29:10.162Z,1.57
2018-12-07T02:31:38.592Z,1.60
2018-12-07T02:34:07.606Z,1.70
2018-12-07T02:36:36.053Z,2.83
2018-12-07T02:39:05.888Z,1.07
2018-12-07T02:41:34.454Z,1.00
2018-12-07T02:44:03.034Z,1.30
2018-12-07T02:46:31.819Z,1.13
2018-12-07T02:49:00.908Z,1.17
2018-12-07T02:51:29.522Z,0.97
2018-12-07T02:53:58.082Z,1.90
2018-12-07T02:56:26.663Z,0.50
2018-12-07T02:58:55.294Z,1.20
2018-12-07T03:01:23.955Z,1.00
2018-12-07T03:03:52.756Z,1.40
2018-12-07T03:06:21.211Z,0.93
2018-12-07T03:08:49.783Z,0.60
2018-12-07T03:11:18.451Z,1.23
2018-12-07T03:13:46.891Z,0.93
2018-12-07T03:16:15.886Z,0.90
2018-12-07T03:18:44.451Z,1.43
2018-12-07T03:21:13.006Z,0.83
2018-12-07T03:23:41.751Z,2.13
2018-12-07T03:26:10.441Z,0.80
2018-12-07T03:28:38.875Z,0.77
2018-12-07T03:31:07.444Z,1.53
2018-12-07T03:33:36.185Z,0.90
2018-12-07T03:36:05.222Z,1.10
2018-12-07T03:38:33.661Z,0.90
2018-12-07T03:41:02.335Z,0.87
2018-12-07T03:43:30.883Z,0.80
2018-12-07T03:45:59.534Z,0.77
2018-12-07T03:48:28.326Z,0.63
2018-12-07T03:50:56.913Z,0.60
2018-12-07T03:53:25.631Z,0.60
2018-12-07T03:55:54.232Z,0.63
2018-12-07T03:58:22.823Z,0.67
2018-12-07T04:00:51.515Z,1.27
2018-12-07T04:03:19.999Z,0.40
2018-12-07T04:05:48.576Z,0.97
2018-12-07T04:08:18.198Z,1.13
2018-12-07T04:10:46.915Z,0.77
2018-12-07T04:13:15.394Z,1.00
2018-12-07T04:15:44.067Z,1.63
2018-12-07T04:18:12.711Z,0.77
2018-12-07T04:20:41.336Z,0.67
2018-12-07T04:23:09.806Z,1.30
2018-12-07T04:25:38.560Z,0.70
2018-12-07T04:28:07.123Z,0.83
2018-12-07T04:30:35.667Z,1.87
2018-12-07T04:33:04.210Z,0.40
2018-12-07T04:35:32.647Z,0.67
2018-12-07T04:38:01.088Z,0.63
2018-12-07T04:40:29.751Z,0.67
2018-12-07T04:42:58.247Z,1.47
2018-12-07T04:45:26.693Z,0.90
2018-12-07T04:47:55.463Z,0.50
2018-12-07T04:50:23.946Z,0.50
2018-12-07T04:52:52.748Z,2.43
2018-12-07T04:55:21.439Z,0.60
2018-12-07T04:57:50.119Z,0.70
2018-12-07T05:00:18.700Z,0.57
2018-12-07T05:02:47.359Z,0.80
2018-12-07T05:05:15.938Z,1.03
2018-12-07T05:07:44.544Z,0.57
2018-12-07T05:10:13.295Z,1.03
2018-12-07T05:12:41.861Z,0.50
2018-12-07T05:15:10.278Z,0.70
2018-12-07T05:17:39.103Z,0.60
2018-12-07T05:20:07.987Z,0.90
2018-12-07T05:22:36.761Z,1.13
2018-12-07T05:25:05.928Z,0.60
2018-12-07T05:27:34.447Z,0.67
2018-12-07T05:30:02.951Z,0.50
2018-12-07T05:32:31.511Z,0.50
2018-12-07T05:35:00.249Z,1.73
2018-12-07T05:37:29.387Z,0.60
2018-12-07T05:39:58.128Z,0.53
2018-12-07T05:42:26.698Z,0.50
2018-12-07T05:44:55.256Z,0.70
2018-12-07T05:47:24.081Z,0.80
2018-12-07T05:49:52.659Z,0.60
2018-12-07T05:52:21.211Z,0.73
2018-12-07T05:54:49.919Z,1.93
2018-12-07T05:57:18.539Z,1.03
2018-12-07T05:59:46.983Z,1.00
2018-12-07T06:02:15.439Z,0.80
2018-12-07T06:04:44.071Z,0.97
2018-12-07T06:07:12.659Z,0.67
2018-12-07T06:09:41.342Z,0.63
2018-12-07T06:12:09.900Z,0.50
2018-12-07T06:14:38.556Z,1.13
2018-12-07T06:17:07.294Z,0.70
2018-12-07T06:19:35.837Z,0.63
2018-12-07T06:22:04.516Z,0.70
2018-12-07T06:24:33.175Z,0.60
2018-12-07T06:27:01.732Z,0.60
2018-12-07T06:29:30.187Z,1.00
2018-12-07T06:31:58.814Z,1.90
2018-12-07T06:34:27.264Z,1.37
2018-12-07T06:36:55.955Z,0.50
2018-12-07T06:39:24.711Z,0.50
2018-12-07T06:41:53.742Z,0.77
2018-12-07T06:44:22.286Z,2.10
2018-12-07T06:46:51.011Z,0.70
2018-12-07T06:49:19.566Z,0.80
2018-12-07T06:51:48.275Z,0.80
2018-12-07T06:54:17.023Z,1.00
2018-12-07T06:56:45.918Z,0.73
2018-12-07T06:59:14.980Z,1.67
2018-12-07T07:01:43.575Z,0.67
2018-12-07T07:04:12.127Z,0.60
2018-12-07T07:06:41.047Z,0.80
2018-12-07T07:09:09.868Z,0.83
2018-12-07T07:11:39.530Z,1.60
2018-12-07T07:14:08.101Z,0.80
2018-12-07T07:16:36.778Z,1.13
2018-12-07T07:19:05.459Z,0.60
2018-12-07T07:21:34.037Z,0.80
2018-12-07T07:24:02.634Z,0.80
2018-12-07T07:26:31.082Z,0.80
2018-12-07T07:28:59.604Z,1.03
2018-12-07T07:31:28.377Z,0.90
2018-12-07T07:33:57.452Z,0.90
2018-12-07T07:36:26.048Z,9.97
2018-12-07T07:38:54.803Z,24.67
2018-12-07T07:41:23.255Z,27.10
2018-12-07T07:43:51.734Z,13.17
2018-12-07T07:46:20.462Z,8.10
2018-12-07T07:48:49.389Z,8.00
2018-12-07T07:51:18.095Z,7.07
2018-12-07T07:53:47.328Z,6.00
2018-12-07T07:56:15.849Z,6.40
2018-12-07T07:58:44.890Z,6.50
2018-12-07T08:01:13.994Z,3.23
2018-12-07T08:03:42.615Z,1.30
2018-12-07T08:06:11.042Z,8.80
2018-12-07T08:08:40.040Z,6.80
2018-12-07T08:11:09.263Z,4.27
2018-12-07T08:13:37.866Z,6.23
2018-12-07T08:16:06.413Z,2.63
2018-12-07T08:18:35.227Z,3.67
2018-12-07T08:21:03.671Z,5.37
2018-12-07T08:23:32.182Z,7.03
2018-12-07T08:26:00.751Z,5.67
2018-12-07T08:28:29.419Z,2.33
2018-12-07T08:30:58.267Z,4.80
2018-12-07T08:33:26.810Z,3.30
2018-12-07T08:35:55.374Z,5.30
2018-12-07T08:38:24.371Z,1.57
2018-12-07T08:40:52.795Z,3.03
2018-12-07T08:43:21.411Z,2.63
2018-12-07T08:45:50.111Z,2.20
2018-12-07T08:48:18.895Z,2.97
2018-12-07T08:50:47.479Z,1.03
2018-12-07T08:53:16.091Z,2.57
2018-12-07T08:55:44.575Z,2.57
2018-12-07T08:58:13.399Z,4.03
2018-12-07T09:00:42.227Z,1.20
2018-12-07T09:03:10.967Z,2.53
2018-12-07T09:05:39.739Z,3.10
2018-12-07T09:08:14.923Z,2.10
2018-12-07T09:10:39.360Z,3.77
2018-12-07T09:13:07.812Z,1.63
2018-12-07T09:15:36.543Z,3.57
2018-12-07T09:18:05.327Z,1.63
2018-12-07T09:20:34.063Z,1.60
2018-12-07T09:23:02.774Z,1.73
2018-12-07T09:25:31.343Z,2.40
2018-12-07T09:27:59.943Z,2.20
2018-12-07T09:30:28.741Z,1.60
2018-12-07T09:32:57.315Z,2.20
2018-12-07T09:35:26.132Z,2.47
2018-12-07T09:37:54.767Z,2.00
2018-12-07T09:40:23.343Z,1.83
2018-12-07T09:42:52.438Z,2.20
2018-12-07T09:45:20.983Z,2.63
2018-12-07T09:47:50.184Z,0.77
2018-12-07T09:50:18.698Z,1.07
2018-12-07T09:52:47.351Z,0.93
2018-12-07T09:55:15.915Z,1.23
2018-12-07T09:57:44.566Z,1.07
2018-12-07T10:00:13.106Z,0.83
2018-12-07T10:02:41.978Z,1.13
2018-12-07T10:05:10.433Z,0.97
2018-12-07T10:07:39.303Z,1.70
2018-12-07T10:10:07.770Z,1.03
2018-12-07T10:12:36.330Z,1.50
2018-12-07T10:15:05.524Z,1.20
2018-12-07T10:17:34.798Z,1.57
2018-12-07T10:20:03.484Z,1.13
2018-12-07T10:22:31.915Z,1.43
2018-12-07T10:25:00.576Z,1.13
2018-12-07T10:27:29.466Z,1.57
2018-12-07T10:29:58.154Z,1.00
2018-12-07T10:32:26.731Z,0.77
2018-12-07T10:34:55.367Z,1.10
2018-12-07T10:37:24.111Z,1.23
2018-12-07T10:39:52.690Z,1.33
2018-12-07T10:42:21.279Z,1.90
2018-12-07T10:44:49.712Z,0.60
2018-12-07T10:47:18.455Z,0.80
2018-12-07T10:49:47.219Z,0.80
2018-12-07T10:52:15.789Z,1.07
2018-12-07T10:54:44.434Z,1.57
2018-12-07T10:57:14.127Z,0.93
2018-12-07T10:59:42.755Z,1.50
2018-12-07T11:02:16.655Z,1.57
2018-12-07T11:04:51.183Z,1.80
2018-12-07T11:07:25.439Z,1.07
2018-12-07T11:09:59.318Z,0.80
2018-12-07T11:13:39.464Z,1.00
2018-12-07T11:16:13.097Z,0.80
2018-12-07T11:18:46.978Z,0.77
2018-12-07T11:21:20.711Z,1.13
2018-12-07T11:24:00.247Z,1.83
2018-12-07T11:26:34.463Z,0.90
2018-12-07T11:29:08.475Z,0.70
2018-12-07T11:31:43.998Z,0.80
2018-12-07T11:34:27.923Z,1.40
2018-12-07T11:36:56.659Z,1.80
2018-12-07T11:39:26.200Z,0.83
2018-12-07T11:41:55.006Z,0.73
2018-12-07T11:44:23.436Z,1.03
2018-12-07T11:46:52.157Z,1.00
2018-12-07T11:49:25.122Z,0.80
2018-12-07T11:51:53.730Z,1.67
2018-12-07T11:54:22.466Z,1.83
2018-12-07T11:56:51.210Z,1.07
2018-12-07T11:59:20.131Z,1.07
2018-12-07T12:01:48.586Z,0.87
2018-12-07T12:04:17.153Z,0.87
2018-12-07T12:06:45.738Z,1.43
2018-12-07T12:09:14.438Z,1.33
2018-12-07T12:11:43.043Z,1.87
2018-12-07T12:14:11.691Z,0.83
2018-12-07T12:16:40.163Z,1.30
2018-12-07T12:19:08.983Z,0.87
2018-12-07T12:21:37.419Z,2.43
2018-12-07T12:24:05.963Z,1.13
2018-12-07T12:26:35.079Z,2.47
2018-12-07T12:29:03.795Z,0.97
2018-12-07T12:31:32.427Z,1.10
2018-12-07T12:34:01.076Z,1.20
2018-12-07T12:36:29.828Z,1.63
2018-12-07T12:38:58.595Z,0.90
2018-12-07T12:41:27.263Z,1.00
2018-12-07T12:43:55.951Z,1.10
2018-12-07T12:46:24.426Z,1.43
2018-12-07T12:48:53.157Z,1.33
2018-12-07T12:51:21.855Z,1.00
2018-12-07T12:53:50.499Z,0.83
2018-12-07T12:56:19.480Z,0.80
2018-12-07T12:58:48.319Z,1.23
2018-12-07T13:01:17.008Z,1.63
2018-12-07T13:03:45.773Z,1.07
2018-12-07T13:06:14.652Z,1.80
2018-12-07T13:08:43.579Z,1.87
2018-12-07T13:11:12.052Z,3.00
2018-12-07T13:13:40.839Z,1.73
2018-12-07T13:16:09.458Z,1.97
2018-12-07T13:18:38.139Z,1.67
2018-12-07T13:21:06.562Z,1.60
2018-12-07T13:23:35.012Z,2.03
2018-12-07T13:26:03.774Z,1.63
2018-12-07T13:28:32.319Z,2.17
2018-12-07T13:31:00.774Z,1.30
2018-12-07T13:33:29.471Z,1.67
2018-12-07T13:35:57.997Z,1.10
2018-12-07T13:38:26.884Z,1.83
2018-12-07T13:40:55.689Z,1.13
2018-12-07T13:43:24.582Z,1.07
2018-12-07T13:45:53.947Z,1.33
2018-12-07T13:48:22.899Z,1.90
2018-12-07T13:50:51.645Z,2.13
2018-12-07T13:53:20.530Z,1.10
2018-12-07T13:55:49.427Z,1.63
2018-12-07T13:58:18.295Z,3.13
2018-12-07T14:00:46.939Z,1.43
2018-12-07T14:03:15.844Z,1.73
2018-12-07T14:05:44.695Z,1.67
2018-12-07T14:08:13.938Z,1.57
2018-12-07T14:10:43.190Z,2.13
2018-12-07T14:13:12.316Z,2.10
2018-12-07T14:15:41.109Z,1.27
2018-12-07T14:18:10.272Z,1.77
2018-12-07T14:20:40.223Z,1.73
2018-12-07T14:23:08.830Z,1.77
2018-12-07T14:25:37.729Z,1.33
2018-12-07T14:28:06.481Z,1.27
2018-12-07T14:30:36.147Z,1.53
2018-12-07T14:33:05.090Z,2.53
2018-12-07T14:35:33.890Z,1.57
2018-12-07T14:38:02.652Z,1.30
2018-12-07T14:40:31.346Z,2.70
2018-12-07T14:43:00.010Z,1.97
2018-12-07T14:45:28.733Z,1.93
2018-12-07T14:47:57.342Z,1.47
2018-12-07T14:50:26.119Z,1.63
2018-12-07T14:52:54.710Z,1.83
2018-12-07T14:55:23.521Z,1.50
2018-12-07T14:57:52.318Z,2.47
2018-12-07T15:00:21.126Z,2.17
2018-12-07T15:02:49.726Z,2.20
2018-12-07T15:05:18.560Z,1.27
2018-12-07T15:07:47.593Z,2.20
2018-12-07T15:10:16.514Z,1.87
2018-12-07T15:12:45.184Z,2.40
2018-12-07T15:15:13.839Z,1.97
2018-12-07T15:17:42.765Z,2.63
2018-12-07T15:20:11.419Z,1.93
2018-12-07T15:22:39.971Z,2.43
2018-12-07T15:25:08.895Z,2.20
2018-12-07T15:27:37.795Z,1.80
2018-12-07T15:30:08.014Z,2.23
2018-12-07T15:32:36.682Z,3.73
2018-12-07T15:35:07.511Z,3.80
2018-12-07T15:37:36.696Z,2.23
2018-12-07T15:40:06.548Z,2.70
2018-12-07T15:42:35.232Z,2.90
2018-12-07T15:45:04.156Z,3.63
2018-12-07T15:47:33.226Z,1.90
2018-12-07T15:50:01.890Z,2.57
2018-12-07T15:52:30.617Z,3.40
2018-12-07T15:54:59.259Z,2.93
2018-12-07T15:57:28.231Z,2.10
2018-12-07T15:59:56.978Z,2.77
2018-12-07T16:02:25.569Z,2.90
2018-12-07T16:04:54.273Z,3.13
2018-12-07T16:07:23.152Z,3.00
2018-12-07T16:09:51.988Z,4.47
2018-12-07T16:12:20.607Z,3.70
2018-12-07T16:14:49.677Z,3.73
2018-12-07T16:17:18.533Z,2.97
2018-12-07T16:19:47.537Z,3.23
2018-12-07T16:22:16.490Z,4.87
2018-12-07T16:24:45.037Z,3.13
2018-12-07T16:27:13.907Z,3.77
2018-12-07T16:29:42.927Z,2.40
2018-12-07T16:32:11.514Z,3.13
2018-12-07T16:34:40.495Z,3.80
2018-12-07T16:37:10.157Z,2.77
2018-12-07T16:39:39.006Z,3.60
2018-12-07T16:42:08.126Z,2.97
2018-12-07T16:44:36.972Z,2.30
2018-12-07T16:47:05.754Z,3.23
2018-12-07T16:49:34.764Z,3.23
2018-12-07T16:52:03.483Z,2.97
2018-12-07T16:54:32.260Z,2.87
2018-12-07T16:57:00.738Z,3.90
2018-12-07T16:59:29.523Z,2.67
2018-12-07T17:01:58.245Z,3.43
2018-12-07T17:04:27.084Z,2.40
2018-12-07T17:06:56.361Z,2.10
2018-12-07T17:09:25.271Z,4.43
2018-12-07T17:11:53.925Z,2.50
2018-12-07T17:14:22.786Z,2.20
2018-12-07T17:16:51.589Z,4.93
2018-12-07T17:19:20.533Z,2.50
2018-12-07T17:21:49.339Z,2.60
2018-12-07T17:24:17.981Z,3.67
2018-12-07T17:26:46.546Z,2.30
2018-12-07T17:29:15.782Z,3.13
2018-12-07T17:31:44.736Z,2.70
2018-12-07T17:34:14.032Z,3.00
2018-12-07T17:36:42.968Z,2.40
2018-12-07T17:39:12.259Z,3.00
2018-12-07T17:41:41.074Z,3.13
2018-12-07T17:44:09.899Z,3.20
2018-12-07T17:46:38.621Z,3.60
2018-12-07T17:49:07.540Z,8.00
2018-12-07T17:51:36.170Z,2.43
2018-12-07T17:54:04.887Z,3.27
2018-12-07T17:56:33.554Z,4.53
2018-12-07T17:59:06.122Z,6.03
2018-12-07T18:01:34.875Z,3.33
2018-12-07T18:04:03.562Z,3.20
2018-12-07T18:06:32.100Z,4.97
2018-12-07T18:09:00.782Z,3.93
2018-12-07T18:11:29.422Z,4.60
2018-12-07T18:13:57.976Z,2.97
2018-12-07T18:16:26.572Z,4.13
2018-12-07T18:18:55.667Z,5.27
2018-12-07T18:21:24.472Z,3.93
2018-12-07T18:23:53.212Z,3.30
2018-12-07T18:26:21.790Z,3.37
2018-12-07T18:28:50.760Z,5.90
2018-12-07T18:31:19.291Z,6.00
2018-12-07T18:33:47.763Z,3.60
2018-12-07T18:36:16.580Z,3.90
2018-12-07T18:38:45.618Z,5.27
2018-12-07T18:41:14.649Z,3.47
2018-12-07T18:43:43.673Z,5.87
2018-12-07T18:46:12.453Z,2.97
2018-12-07T18:48:41.383Z,5.43
2018-12-07T18:51:10.328Z,4.37
2018-12-07T18:53:39.051Z,3.17
2018-12-07T18:56:07.853Z,5.47
2018-12-07T18:58:37.189Z,3.77
2018-12-07T19:01:05.933Z,2.53
2018-12-07T19:03:34.414Z,3.10
2018-12-07T19:06:02.957Z,2.80
2018-12-07T19:08:31.974Z,4.13
2018-12-07T19:11:01.029Z,2.87
2018-12-07T19:13:29.879Z,3.17
2018-12-07T19:15:58.525Z,2.43
2018-12-07T19:18:27.366Z,2.50
2018-12-07T19:20:56.198Z,3.57
2018-12-07T19:23:25.400Z,2.43
2018-12-07T19:25:54.130Z,2.60
2018-12-07T19:28:23.068Z,2.20
2018-12-07T19:30:51.845Z,2.40
2018-12-07T19:33:20.389Z,3.27
2018-12-07T19:35:49.508Z,1.57
2018-12-07T19:38:18.329Z,2.67
2018-12-07T19:40:47.114Z,3.03
2018-12-07T19:43:15.831Z,2.77
2018-12-07T19:45:44.452Z,1.67
2018-12-07T19:48:13.646Z,2.20
2018-12-07T19:50:42.600Z,2.80
2018-12-07T19:53:11.419Z,1.60
2018-12-07T19:55:39.970Z,1.70
2018-12-07T19:58:09.000Z,15.17
2018-12-07T20:00:37.896Z,3.53
2018-12-07T20:03:07.620Z,3.03
2018-12-07T20:05:37.127Z,4.50
2018-12-07T20:08:05.998Z,5.23
2018-12-07T20:10:34.756Z,3.07
2018-12-07T20:13:03.458Z,3.93
2018-12-07T20:15:31.952Z,4.53
2018-12-07T20:18:01.012Z,4.37
2018-12-07T20:20:29.924Z,6.57
2018-12-07T20:22:58.924Z,5.80
2018-12-07T20:25:27.643Z,5.87
2018-12-07T20:27:57.050Z,5.17
2018-12-07T20:30:26.008Z,5.77
2018-12-07T20:32:54.759Z,3.83
2018-12-07T20:35:24.040Z,3.77
2018-12-07T20:37:52.962Z,4.20
2018-12-07T20:40:21.999Z,3.77
2018-12-07T20:42:52.142Z,4.80
2018-12-07T20:45:20.927Z,3.80
2018-12-07T20:47:49.566Z,4.70
2018-12-07T20:50:18.186Z,4.57
2018-12-07T20:52:47.114Z,5.00
2018-12-07T20:55:16.119Z,3.90
2018-12-07T20:57:44.894Z,3.27
2018-12-07T21:00:13.548Z,3.93
2018-12-07T21:02:42.637Z,4.07
2018-12-07T21:07:29.767Z,3.23
2018-12-07T21:10:57.368Z,2.90
2018-12-07T21:13:37.955Z,4.07
2018-12-07T21:19:16.953Z,4.17
2018-12-07T21:21:45.943Z,4.93
2018-12-07T21:24:14.697Z,4.20
2018-12-07T21:26:43.412Z,4.30
2018-12-07T21:29:12.143Z,14.27
2018-12-07T21:31:40.777Z,3.80
2018-12-07T21:34:23.134Z,4.00
2018-12-07T21:36:52.043Z,4.87
2018-12-07T21:39:32.135Z,5.43
2018-12-07T21:42:02.019Z,5.90
2018-12-07T21:44:31.367Z,4.57
2018-12-07T21:47:00.386Z,3.50
2018-12-07T21:49:32.472Z,4.00
2018-12-07T21:52:10.979Z,4.40
2018-12-07T21:54:39.828Z,4.13
2018-12-07T21:57:08.685Z,4.17
2018-12-07T21:59:37.654Z,3.37
2018-12-07T22:02:06.605Z,2.83
2018-12-07T22:04:35.458Z,3.73
2018-12-07T22:07:04.435Z,4.07
2018-12-07T22:09:33.327Z,3.33
2018-12-07T22:12:02.371Z,3.17
2018-12-07T22:14:31.024Z,3.77
2018-12-07T22:16:59.840Z,2.50
2018-12-07T22:19:28.714Z,4.20
2018-12-07T22:21:57.517Z,2.57
2018-12-07T22:24:26.344Z,3.77
2018-12-07T22:26:54.883Z,2.13
2018-12-07T22:29:23.979Z,2.37
2018-12-07T22:31:52.522Z,2.13
2018-12-07T22:34:21.357Z,2.90
2018-12-07T22:36:50.313Z,2.93
2018-12-07T22:39:19.488Z,2.07
2018-12-07T22:41:48.120Z,2.47
2018-12-07T22:44:16.815Z,3.10
2018-12-07T22:46:45.570Z,2.40
2018-12-07T22:49:14.383Z,3.07
2018-12-07T22:51:42.976Z,2.03
2018-12-07T22:54:11.541Z,2.47
2018-12-07T22:56:40.227Z,1.83
2018-12-07T22:59:09.119Z,1.10
2018-12-07T23:01:37.859Z,1.60
2018-12-07T23:04:06.297Z,2.13
2018-12-07T23:06:34.887Z,1.47
2018-12-07T23:09:05.243Z,1.60
2018-12-07T23:11:33.806Z,1.90
2018-12-07T23:14:02.284Z,1.10
2018-12-07T23:16:30.767Z,2.57
2018-12-07T23:18:59.559Z,1.57
2018-12-07T23:21:28.203Z,1.40
2018-12-07T23:23:56.910Z,1.83
2018-12-07T23:26:25.650Z,0.90
2018-12-07T23:28:54.347Z,1.60
2018-12-07T23:31:22.848Z,1.00
2018-12-07T23:33:51.908Z,1.87
2018-12-07T23:36:20.680Z,0.87
2018-12-07T23:38:49.343Z,1.10
2018-12-07T23:41:17.788Z,2.23
2018-12-07T23:43:46.519Z,0.80
2018-12-07T23:46:15.084Z,1.37
2018-12-07T23:48:43.884Z,1.73
2018-12-07T23:51:12.453Z,1.53
2018-12-07T23:53:41.714Z,1.27
2018-12-07T23:56:10.271Z,1.23
2018-12-07T23:58:39.214Z,1.93
